sensor_id;sensor_type;location;lat;lon;timestamp;P1;durP1;ratioP1;P2;durP2;ratioP2
40046;SDS011;31510;48.122;11.576;2022-08-20T00:00:45;9.45;;;8.55;;
40046;SDS011;31510;48.122;11.576;2022-08-20T00:03:19;10.32;;;8.65;;
40046;SDS011;31510;48.122;11.576;2022-08-20T00:05:51;9.60;;;8.68;;
40046;SDS011;31510;48.122;11.576;2022-08-20T00:08:20;9.32;;;8.38;;
40046;SDS011;31510;48.122;11.576;2022-08-20T00:10:46;9.65;;;8.43;;
40046;SDS011;31510;48.122;11.576;2022-08-20T00:13:16;10.48;;;9.27;;
40046;SDS011;31510;48.122;11.576;2022-08-20T00:18:19;9.13;;;8.25;;
40046;SDS011;31510;48.122;11.576;2022-08-20T00:20:47;10.27;;;9.25;;
40046;SDS011;31510;48.122;11.576;2022-08-20T00:23:15;10.52;;;9.35;;
40046;SDS011;31510;48.122;11.576;2022-08-20T00:25:41;11.43;;;9.50;;
40046;SDS011;31510;48.122;11.576;2022-08-20T00:28:08;10.38;;;9.38;;
40046;SDS011;31510;48.122;11.576;2022-08-20T00:30:36;9.38;;;8.45;;
40046;SDS011;31510;48.122;11.576;2022-08-20T00:33:07;9.57;;;8.50;;
40046;SDS011;31510;48.122;11.576;2022-08-20T00:35:36;10.00;;;8.95;;
40046;SDS011;31510;48.122;11.576;2022-08-20T00:38:07;10.48;;;9.32;;
40046;SDS011;31510;48.122;11.576;2022-08-20T00:40:34;10.48;;;9.40;;
40046;SDS011;31510;48.122;11.576;2022-08-20T00:43:05;10.45;;;9.35;;
40046;SDS011;31510;48.122;11.576;2022-08-20T00:45:49;12.05;;;10.15;;
40046;SDS011;31510;48.122;11.576;2022-08-20T00:48:19;11.32;;;9.48;;
40046;SDS011;31510;48.122;11.576;2022-08-20T00:50:44;11.30;;;10.07;;
40046;SDS011;31510;48.122;11.576;2022-08-20T00:53:10;10.32;;;9.23;;
40046;SDS011;31510;48.122;11.576;2022-08-20T00:55:35;12.10;;;10.10;;
40046;SDS011;31510;48.122;11.576;2022-08-20T00:58:04;11.63;;;10.25;;
40046;SDS011;31510;48.122;11.576;2022-08-20T01:00:41;12.95;;;10.82;;
40046;SDS011;31510;48.122;11.576;2022-08-20T01:03:16;13.93;;;12.43;;
40046;SDS011;31510;48.122;11.576;2022-08-20T01:05:45;12.85;;;11.52;;
40046;SDS011;31510;48.122;11.576;2022-08-20T01:08:12;14.88;;;11.55;;
40046;SDS011;31510;48.122;11.576;2022-08-20T01:10:41;13.65;;;12.18;;
40046;SDS011;31510;48.122;11.576;2022-08-20T01:13:15;13.38;;;12.00;;
40046;SDS011;31510;48.122;11.576;2022-08-20T01:15:47;13.25;;;11.27;;
40046;SDS011;31510;48.122;11.576;2022-08-20T01:18:18;13.93;;;12.10;;
40046;SDS011;31510;48.122;11.576;2022-08-20T01:20:59;13.70;;;11.75;;
40046;SDS011;31510;48.122;11.576;2022-08-20T01:26:18;16.55;;;12.70;;
40046;SDS011;31510;48.122;11.576;2022-08-20T01:28:48;14.23;;;12.40;;
40046;SDS011;31510;48.122;11.576;2022-08-20T01:31:23;14.45;;;12.85;;
40046;SDS011;31510;48.122;11.576;2022-08-20T01:33:51;14.23;;;12.40;;
40046;SDS011;31510;48.122;11.576;2022-08-20T01:36:21;15.27;;;13.68;;
40046;SDS011;31510;48.122;11.576;2022-08-20T01:38:48;14.70;;;12.90;;
40046;SDS011;31510;48.122;11.576;2022-08-20T01:44:05;14.43;;;11.48;;
40046;SDS011;31510;48.122;11.576;2022-08-20T01:46:34;14.15;;;12.30;;
40046;SDS011;31510;48.122;11.576;2022-08-20T01:49:09;15.80;;;13.60;;
40046;SDS011;31510;48.122;11.576;2022-08-20T01:51:38;14.35;;;12.85;;
40046;SDS011;31510;48.122;11.576;2022-08-20T01:54:03;16.25;;;13.05;;
40046;SDS011;31510;48.122;11.576;2022-08-20T01:56:31;14.73;;;12.68;;
40046;SDS011;31510;48.122;11.576;2022-08-20T01:59:00;14.38;;;12.88;;
40046;SDS011;31510;48.122;11.576;2022-08-20T02:01:34;16.73;;;13.18;;
40046;SDS011;31510;48.122;11.576;2022-08-20T02:04:05;16.13;;;13.40;;
40046;SDS011;31510;48.122;11.576;2022-08-20T02:06:33;14.30;;;12.73;;
40046;SDS011;31510;48.122;11.576;2022-08-20T02:09:01;15.88;;;13.65;;
40046;SDS011;31510;48.122;11.576;2022-08-20T02:11:28;21.48;;;13.63;;
40046;SDS011;31510;48.122;11.576;2022-08-20T02:13:57;15.90;;;13.13;;
40046;SDS011;31510;48.122;11.576;2022-08-20T02:16:33;18.65;;;13.45;;
40046;SDS011;31510;48.122;11.576;2022-08-20T02:19:02;16.05;;;14.32;;
40046;SDS011;31510;48.122;11.576;2022-08-20T02:21:42;16.92;;;13.90;;
40046;SDS011;31510;48.122;11.576;2022-08-20T02:24:11;14.90;;;13.30;;
40046;SDS011;31510;48.122;11.576;2022-08-20T02:26:38;17.50;;;15.45;;
40046;SDS011;31510;48.122;11.576;2022-08-20T02:29:09;17.02;;;14.20;;
40046;SDS011;31510;48.122;11.576;2022-08-20T02:31:36;15.68;;;13.77;;
40046;SDS011;31510;48.122;11.576;2022-08-20T02:34:04;19.38;;;16.38;;
40046;SDS011;31510;48.122;11.576;2022-08-20T02:36:33;16.90;;;13.98;;
40046;SDS011;31510;48.122;11.576;2022-08-20T02:39:00;16.25;;;14.50;;
40046;SDS011;31510;48.122;11.576;2022-08-20T02:41:29;17.52;;;14.43;;
40046;SDS011;31510;48.122;11.576;2022-08-20T02:43:56;17.38;;;14.15;;
40046;SDS011;31510;48.122;11.576;2022-08-20T02:46:25;17.02;;;14.65;;
40046;SDS011;31510;48.122;11.576;2022-08-20T02:48:52;15.50;;;13.90;;
40046;SDS011;31510;48.122;11.576;2022-08-20T02:51:21;17.80;;;15.25;;
40046;SDS011;31510;48.122;11.576;2022-08-20T02:53:46;18.35;;;14.95;;
40046;SDS011;31510;48.122;11.576;2022-08-20T02:56:12;16.67;;;14.68;;
40046;SDS011;31510;48.122;11.576;2022-08-20T02:58:39;16.83;;;14.90;;
40046;SDS011;31510;48.122;11.576;2022-08-20T03:01:10;16.55;;;14.85;;
40046;SDS011;31510;48.122;11.576;2022-08-20T03:03:38;16.65;;;13.73;;
40046;SDS011;31510;48.122;11.576;2022-08-20T03:06:04;19.75;;;15.07;;
40046;SDS011;31510;48.122;11.576;2022-08-20T03:08:31;20.02;;;16.25;;
40046;SDS011;31510;48.122;11.576;2022-08-20T03:10:56;18.67;;;15.73;;
40046;SDS011;31510;48.122;11.576;2022-08-20T03:13:24;17.27;;;15.48;;
40046;SDS011;31510;48.122;11.576;2022-08-20T03:15:54;19.70;;;15.93;;
40046;SDS011;31510;48.122;11.576;2022-08-20T03:18:22;16.90;;;14.48;;
40046;SDS011;31510;48.122;11.576;2022-08-20T03:20:49;16.80;;;14.73;;
40046;SDS011;31510;48.122;11.576;2022-08-20T03:23:15;19.05;;;15.48;;
40046;SDS011;31510;48.122;11.576;2022-08-20T03:25:42;17.58;;;15.55;;
40046;SDS011;31510;48.122;11.576;2022-08-20T03:28:10;17.45;;;15.35;;
40046;SDS011;31510;48.122;11.576;2022-08-20T03:30:38;18.60;;;14.73;;
40046;SDS011;31510;48.122;11.576;2022-08-20T03:33:08;17.13;;;15.32;;
40046;SDS011;31510;48.122;11.576;2022-08-20T03:35:34;16.40;;;14.57;;
40046;SDS011;31510;48.122;11.576;2022-08-20T03:38:00;16.88;;;14.15;;
40046;SDS011;31510;48.122;11.576;2022-08-20T03:40:30;17.95;;;15.32;;
40046;SDS011;31510;48.122;11.576;2022-08-20T03:42:59;18.33;;;15.20;;
40046;SDS011;31510;48.122;11.576;2022-08-20T03:45:34;19.92;;;15.55;;
40046;SDS011;31510;48.122;11.576;2022-08-20T03:48:02;17.85;;;15.05;;
40046;SDS011;31510;48.122;11.576;2022-08-20T03:50:31;18.08;;;14.75;;
40046;SDS011;31510;48.122;11.576;2022-08-20T03:52:58;19.23;;;15.15;;
40046;SDS011;31510;48.122;11.576;2022-08-20T03:55:24;18.83;;;15.63;;
40046;SDS011;31510;48.122;11.576;2022-08-20T03:57:54;18.60;;;14.90;;
40046;SDS011;31510;48.122;11.576;2022-08-20T04:00:30;17.25;;;14.32;;
40046;SDS011;31510;48.122;11.576;2022-08-20T04:02:59;19.98;;;15.77;;
40046;SDS011;31510;48.122;11.576;2022-08-20T04:05:25;19.80;;;15.40;;
40046;SDS011;31510;48.122;11.576;2022-08-20T04:07:53;17.73;;;15.32;;
40046;SDS011;31510;48.122;11.576;2022-08-20T04:10:18;17.38;;;15.32;;
40046;SDS011;31510;48.122;11.576;2022-08-20T04:12:46;19.65;;;15.90;;
40046;SDS011;31510;48.122;11.576;2022-08-20T04:15:17;19.05;;;15.30;;
40046;SDS011;31510;48.122;11.576;2022-08-20T04:17:48;18.48;;;15.35;;
40046;SDS011;31510;48.122;11.576;2022-08-20T04:22:48;16.40;;;14.48;;
40046;SDS011;31510;48.122;11.576;2022-08-20T04:25:14;17.42;;;14.55;;
40046;SDS011;31510;48.122;11.576;2022-08-20T04:27:46;17.30;;;14.90;;
40046;SDS011;31510;48.122;11.576;2022-08-20T04:30:18;17.58;;;15.32;;
40046;SDS011;31510;48.122;11.576;2022-08-20T04:32:47;19.15;;;15.43;;
40046;SDS011;31510;48.122;11.576;2022-08-20T04:35:14;14.30;;;12.82;;
40046;SDS011;31510;48.122;11.576;2022-08-20T04:37:41;19.13;;;14.63;;
40046;SDS011;31510;48.122;11.576;2022-08-20T04:40:09;16.83;;;14.27;;
40046;SDS011;31510;48.122;11.576;2022-08-20T04:42:57;18.92;;;14.43;;
40046;SDS011;31510;48.122;11.576;2022-08-20T04:45:29;16.73;;;13.93;;
40046;SDS011;31510;48.122;11.576;2022-08-20T04:47:56;15.07;;;13.50;;
40046;SDS011;31510;48.122;11.576;2022-08-20T04:50:21;17.58;;;15.27;;
40046;SDS011;31510;48.122;11.576;2022-08-20T04:52:47;19.80;;;14.95;;
40046;SDS011;31510;48.122;11.576;2022-08-20T04:55:13;15.85;;;13.02;;
40046;SDS011;31510;48.122;11.576;2022-08-20T04:57:42;18.50;;;15.25;;
40046;SDS011;31510;48.122;11.576;2022-08-20T05:00:15;16.90;;;13.93;;
40046;SDS011;31510;48.122;11.576;2022-08-20T05:02:44;19.27;;;14.40;;
40046;SDS011;31510;48.122;11.576;2022-08-20T05:05:10;15.93;;;14.13;;
40046;SDS011;31510;48.122;11.576;2022-08-20T05:07:43;15.73;;;14.05;;
40046;SDS011;31510;48.122;11.576;2022-08-20T05:10:12;16.77;;;15.00;;
40046;SDS011;31510;48.122;11.576;2022-08-20T05:12:42;16.42;;;13.82;;
40046;SDS011;31510;48.122;11.576;2022-08-20T05:15:14;20.83;;;15.52;;
40046;SDS011;31510;48.122;11.576;2022-08-20T05:17:43;17.67;;;13.93;;
40046;SDS011;31510;48.122;11.576;2022-08-20T05:20:10;17.55;;;14.18;;
40046;SDS011;31510;48.122;11.576;2022-08-20T05:22:40;16.15;;;13.82;;
40046;SDS011;31510;48.122;11.576;2022-08-20T05:25:13;19.35;;;14.07;;
40046;SDS011;31510;48.122;11.576;2022-08-20T05:27:43;17.13;;;13.73;;
40046;SDS011;31510;48.122;11.576;2022-08-20T05:30:11;16.80;;;14.25;;
40046;SDS011;31510;48.122;11.576;2022-08-20T05:32:37;17.88;;;14.65;;
40046;SDS011;31510;48.122;11.576;2022-08-20T05:35:04;16.90;;;14.70;;
40046;SDS011;31510;48.122;11.576;2022-08-20T05:37:33;18.15;;;14.68;;
40046;SDS011;31510;48.122;11.576;2022-08-20T05:39:59;16.20;;;14.00;;
40046;SDS011;31510;48.122;11.576;2022-08-20T05:42:31;15.63;;;13.55;;
40046;SDS011;31510;48.122;11.576;2022-08-20T05:45:00;18.08;;;14.52;;
40046;SDS011;31510;48.122;11.576;2022-08-20T05:47:26;17.42;;;15.07;;
40046;SDS011;31510;48.122;11.576;2022-08-20T05:49:52;18.42;;;15.73;;
40046;SDS011;31510;48.122;11.576;2022-08-20T05:52:18;16.08;;;14.38;;
40046;SDS011;31510;48.122;11.576;2022-08-20T05:54:43;16.80;;;14.40;;
40046;SDS011;31510;48.122;11.576;2022-08-20T05:57:15;18.67;;;14.68;;
40046;SDS011;31510;48.122;11.576;2022-08-20T05:59:44;15.93;;;13.70;;
40046;SDS011;31510;48.122;11.576;2022-08-20T06:02:10;15.52;;;13.35;;
40046;SDS011;31510;48.122;11.576;2022-08-20T06:04:54;14.57;;;12.98;;
40046;SDS011;31510;48.122;11.576;2022-08-20T06:07:20;15.65;;;13.93;;
40046;SDS011;31510;48.122;11.576;2022-08-20T06:09:45;17.17;;;15.18;;
40046;SDS011;31510;48.122;11.576;2022-08-20T06:12:10;16.00;;;13.93;;
40046;SDS011;31510;48.122;11.576;2022-08-20T06:14:38;16.15;;;13.88;;
40046;SDS011;31510;48.122;11.576;2022-08-20T06:17:13;15.80;;;12.90;;
40046;SDS011;31510;48.122;11.576;2022-08-20T06:19:40;16.65;;;13.30;;
40046;SDS011;31510;48.122;11.576;2022-08-20T06:22:06;15.10;;;13.50;;
40046;SDS011;31510;48.122;11.576;2022-08-20T06:24:32;17.63;;;14.40;;
40046;SDS011;31510;48.122;11.576;2022-08-20T06:27:00;17.40;;;13.48;;
40046;SDS011;31510;48.122;11.576;2022-08-20T06:29:29;16.17;;;13.27;;
40046;SDS011;31510;48.122;11.576;2022-08-20T06:31:57;14.48;;;12.68;;
40046;SDS011;31510;48.122;11.576;2022-08-20T06:34:22;15.65;;;13.57;;
40046;SDS011;31510;48.122;11.576;2022-08-20T06:36:52;18.88;;;13.60;;
40046;SDS011;31510;48.122;11.576;2022-08-20T06:39:18;14.05;;;12.43;;
40046;SDS011;31510;48.122;11.576;2022-08-20T06:41:43;16.75;;;13.32;;
40046;SDS011;31510;48.122;11.576;2022-08-20T06:44:08;15.75;;;14.05;;
40046;SDS011;31510;48.122;11.576;2022-08-20T06:46:34;14.10;;;12.57;;
40046;SDS011;31510;48.122;11.576;2022-08-20T06:49:02;17.40;;;14.02;;
40046;SDS011;31510;48.122;11.576;2022-08-20T06:51:28;20.05;;;13.57;;
40046;SDS011;31510;48.122;11.576;2022-08-20T06:53:54;20.15;;;12.77;;
40046;SDS011;31510;48.122;11.576;2022-08-20T06:56:21;14.27;;;12.65;;
40046;SDS011;31510;48.122;11.576;2022-08-20T06:58:50;16.25;;;14.05;;
40046;SDS011;31510;48.122;11.576;2022-08-20T07:01:21;13.90;;;12.10;;
40046;SDS011;31510;48.122;11.576;2022-08-20T07:03:46;14.50;;;12.07;;
40046;SDS011;31510;48.122;11.576;2022-08-20T07:06:13;17.80;;;12.55;;
40046;SDS011;31510;48.122;11.576;2022-08-20T07:08:40;15.10;;;12.30;;
40046;SDS011;31510;48.122;11.576;2022-08-20T07:11:08;15.35;;;13.13;;
40046;SDS011;31510;48.122;11.576;2022-08-20T07:13:40;15.38;;;12.95;;
40046;SDS011;31510;48.122;11.576;2022-08-20T07:16:09;17.80;;;13.73;;
40046;SDS011;31510;48.122;11.576;2022-08-20T07:18:34;14.23;;;12.52;;
40046;SDS011;31510;48.122;11.576;2022-08-20T07:21:00;13.30;;;12.00;;
40046;SDS011;31510;48.122;11.576;2022-08-20T07:23:25;16.08;;;13.40;;
40046;SDS011;31510;48.122;11.576;2022-08-20T07:25:51;17.10;;;12.18;;
40046;SDS011;31510;48.122;11.576;2022-08-20T07:28:19;14.65;;;13.13;;
40046;SDS011;31510;48.122;11.576;2022-08-20T07:30:46;15.50;;;12.77;;
40046;SDS011;31510;48.122;11.576;2022-08-20T07:33:33;15.80;;;11.10;;
40046;SDS011;31510;48.122;11.576;2022-08-20T07:36:00;16.00;;;13.43;;
40046;SDS011;31510;48.122;11.576;2022-08-20T07:38:30;14.43;;;12.90;;
40046;SDS011;31510;48.122;11.576;2022-08-20T07:41:05;14.45;;;11.10;;
40046;SDS011;31510;48.122;11.576;2022-08-20T07:43:32;15.43;;;12.40;;
40046;SDS011;31510;48.122;11.576;2022-08-20T07:45:58;19.33;;;13.27;;
40046;SDS011;31510;48.122;11.576;2022-08-20T07:48:26;12.93;;;11.18;;
40046;SDS011;31510;48.122;11.576;2022-08-20T07:50:56;12.70;;;10.80;;
40046;SDS011;31510;48.122;11.576;2022-08-20T07:53:23;14.40;;;12.32;;
40046;SDS011;31510;48.122;11.576;2022-08-20T07:55:49;15.52;;;11.85;;
40046;SDS011;31510;48.122;11.576;2022-08-20T07:58:16;13.95;;;11.60;;
40046;SDS011;31510;48.122;11.576;2022-08-20T08:00:44;14.07;;;10.98;;
40046;SDS011;31510;48.122;11.576;2022-08-20T08:03:09;14.57;;;11.77;;
40046;SDS011;31510;48.122;11.576;2022-08-20T08:05:36;14.43;;;11.73;;
40046;SDS011;31510;48.122;11.576;2022-08-20T08:08:05;12.20;;;10.90;;
40046;SDS011;31510;48.122;11.576;2022-08-20T08:10:33;13.95;;;11.25;;
40046;SDS011;31510;48.122;11.576;2022-08-20T08:13:02;14.15;;;11.40;;
40046;SDS011;31510;48.122;11.576;2022-08-20T08:15:30;12.20;;;10.65;;
40046;SDS011;31510;48.122;11.576;2022-08-20T08:17:59;12.15;;;10.20;;
40046;SDS011;31510;48.122;11.576;2022-08-20T08:20:29;21.90;;;12.73;;
40046;SDS011;31510;48.122;11.576;2022-08-20T08:22:55;13.95;;;10.35;;
40046;SDS011;31510;48.122;11.576;2022-08-20T08:25:21;14.43;;;10.82;;
40046;SDS011;31510;48.122;11.576;2022-08-20T08:27:46;14.32;;;10.68;;
40046;SDS011;31510;48.122;11.576;2022-08-20T08:30:12;14.52;;;11.20;;
40046;SDS011;31510;48.122;11.576;2022-08-20T08:32:39;16.67;;;11.38;;
40046;SDS011;31510;48.122;11.576;2022-08-20T08:35:23;13.82;;;10.52;;
40046;SDS011;31510;48.122;11.576;2022-08-20T08:37:48;14.05;;;10.90;;
40046;SDS011;31510;48.122;11.576;2022-08-20T08:40:14;12.60;;;11.25;;
40046;SDS011;31510;48.122;11.576;2022-08-20T08:42:42;12.00;;;10.80;;
40046;SDS011;31510;48.122;11.576;2022-08-20T08:45:19;12.38;;;10.45;;
40046;SDS011;31510;48.122;11.576;2022-08-20T08:47:45;12.50;;;10.32;;
40046;SDS011;31510;48.122;11.576;2022-08-20T08:50:15;13.15;;;11.48;;
40046;SDS011;31510;48.122;11.576;2022-08-20T08:52:46;13.18;;;10.48;;
40046;SDS011;31510;48.122;11.576;2022-08-20T08:55:16;12.23;;;10.82;;
40046;SDS011;31510;48.122;11.576;2022-08-20T08:57:45;13.52;;;10.63;;
40046;SDS011;31510;48.122;11.576;2022-08-20T09:00:21;13.32;;;11.20;;
40046;SDS011;31510;48.122;11.576;2022-08-20T09:02:55;13.43;;;10.77;;
40046;SDS011;31510;48.122;11.576;2022-08-20T09:05:37;15.07;;;12.82;;
40046;SDS011;31510;48.122;11.576;2022-08-20T09:08:09;13.55;;;11.77;;
40046;SDS011;31510;48.122;11.576;2022-08-20T09:10:39;13.93;;;12.52;;
40046;SDS011;31510;48.122;11.576;2022-08-20T09:13:05;13.30;;;11.80;;
40046;SDS011;31510;48.122;11.576;2022-08-20T09:15:30;13.75;;;11.93;;
40046;SDS011;31510;48.122;11.576;2022-08-20T09:17:56;17.08;;;12.98;;
40046;SDS011;31510;48.122;11.576;2022-08-20T09:20:22;14.73;;;13.00;;
40046;SDS011;31510;48.122;11.576;2022-08-20T09:22:47;13.93;;;12.43;;
40046;SDS011;31510;48.122;11.576;2022-08-20T09:25:13;13.88;;;12.60;;
40046;SDS011;31510;48.122;11.576;2022-08-20T09:27:38;13.98;;;11.98;;
40046;SDS011;31510;48.122;11.576;2022-08-20T09:30:04;15.40;;;12.63;;
40046;SDS011;31510;48.122;11.576;2022-08-20T09:32:30;15.10;;;12.95;;
40046;SDS011;31510;48.122;11.576;2022-08-20T09:34:55;14.48;;;11.90;;
40046;SDS011;31510;48.122;11.576;2022-08-20T09:37:23;17.73;;;13.30;;
40046;SDS011;31510;48.122;11.576;2022-08-20T09:39:49;14.60;;;13.05;;
40046;SDS011;31510;48.122;11.576;2022-08-20T09:42:16;17.98;;;14.63;;
40046;SDS011;31510;48.122;11.576;2022-08-20T09:44:50;15.45;;;13.57;;
40046;SDS011;31510;48.122;11.576;2022-08-20T09:47:15;17.30;;;14.77;;
40046;SDS011;31510;48.122;11.576;2022-08-20T09:49:41;15.00;;;13.07;;
40046;SDS011;31510;48.122;11.576;2022-08-20T09:52:08;17.08;;;14.73;;
40046;SDS011;31510;48.122;11.576;2022-08-20T09:54:35;19.55;;;14.43;;
40046;SDS011;31510;48.122;11.576;2022-08-20T09:57:04;16.08;;;14.32;;
40046;SDS011;31510;48.122;11.576;2022-08-20T09:59:31;16.90;;;15.20;;
40046;SDS011;31510;48.122;11.576;2022-08-20T10:01:57;18.65;;;14.75;;
40046;SDS011;31510;48.122;11.576;2022-08-20T10:04:23;18.45;;;14.80;;
40046;SDS011;31510;48.122;11.576;2022-08-20T10:06:48;17.27;;;15.52;;
40046;SDS011;31510;48.122;11.576;2022-08-20T10:09:13;18.13;;;15.70;;
40046;SDS011;31510;48.122;11.576;2022-08-20T10:11:39;17.55;;;15.68;;
40046;SDS011;31510;48.122;11.576;2022-08-20T10:14:04;19.52;;;17.40;;
40046;SDS011;31510;48.122;11.576;2022-08-20T10:16:31;18.92;;;16.77;;
40046;SDS011;31510;48.122;11.576;2022-08-20T10:18:57;18.48;;;16.63;;
40046;SDS011;31510;48.122;11.576;2022-08-20T10:21:22;17.77;;;15.93;;
40046;SDS011;31510;48.122;11.576;2022-08-20T10:23:48;19.77;;;17.27;;
40046;SDS011;31510;48.122;11.576;2022-08-20T10:26:14;18.38;;;16.48;;
40046;SDS011;31510;48.122;11.576;2022-08-20T10:28:39;17.25;;;15.55;;
40046;SDS011;31510;48.122;11.576;2022-08-20T10:31:08;19.35;;;16.95;;
40046;SDS011;31510;48.122;11.576;2022-08-20T10:33:35;17.83;;;16.02;;
40046;SDS011;31510;48.122;11.576;2022-08-20T10:36:08;18.30;;;16.50;;
40046;SDS011;31510;48.122;11.576;2022-08-20T10:38:39;18.13;;;16.25;;
40046;SDS011;31510;48.122;11.576;2022-08-20T10:41:05;18.23;;;16.33;;
40046;SDS011;31510;48.122;11.576;2022-08-20T10:43:30;19.45;;;16.10;;
40046;SDS011;31510;48.122;11.576;2022-08-20T10:45:56;18.77;;;16.65;;
40046;SDS011;31510;48.122;11.576;2022-08-20T10:48:22;19.35;;;17.40;;
40046;SDS011;31510;48.122;11.576;2022-08-20T10:50:48;19.98;;;16.92;;
40046;SDS011;31510;48.122;11.576;2022-08-20T10:53:13;20.33;;;17.05;;
40046;SDS011;31510;48.122;11.576;2022-08-20T10:55:39;21.83;;;17.85;;
40046;SDS011;31510;48.122;11.576;2022-08-20T10:58:05;20.40;;;18.35;;
40046;SDS011;31510;48.122;11.576;2022-08-20T11:00:31;19.95;;;16.98;;
40046;SDS011;31510;48.122;11.576;2022-08-20T11:02:56;20.00;;;17.98;;
40046;SDS011;31510;48.122;11.576;2022-08-20T11:05:22;18.77;;;15.97;;
40046;SDS011;31510;48.122;11.576;2022-08-20T11:07:47;21.23;;;18.42;;
40046;SDS011;31510;48.122;11.576;2022-08-20T11:10:12;19.08;;;17.17;;
40046;SDS011;31510;48.122;11.576;2022-08-20T11:12:38;20.88;;;18.67;;
40046;SDS011;31510;48.122;11.576;2022-08-20T11:15:04;20.70;;;18.38;;
40046;SDS011;31510;48.122;11.576;2022-08-20T11:17:31;17.63;;;15.55;;
40046;SDS011;31510;48.122;11.576;2022-08-20T11:19:58;20.27;;;17.25;;
40046;SDS011;31510;48.122;11.576;2022-08-20T11:22:24;17.80;;;16.00;;
40046;SDS011;31510;48.122;11.576;2022-08-20T11:24:50;30.60;;;17.83;;
40046;SDS011;31510;48.122;11.576;2022-08-20T11:27:20;21.52;;;18.42;;
40046;SDS011;31510;48.122;11.576;2022-08-20T11:29:48;19.17;;;17.08;;
40046;SDS011;31510;48.122;11.576;2022-08-20T11:32:13;19.07;;;16.97;;
40046;SDS011;31510;48.122;11.576;2022-08-20T11:34:38;20.77;;;18.08;;
40046;SDS011;31510;48.122;11.576;2022-08-20T11:37:04;20.63;;;18.55;;
40046;SDS011;31510;48.122;11.576;2022-08-20T11:39:29;22.95;;;18.23;;
40046;SDS011;31510;48.122;11.576;2022-08-20T11:41:54;20.77;;;18.60;;
40046;SDS011;31510;48.122;11.576;2022-08-20T11:44:19;21.25;;;18.15;;
40046;SDS011;31510;48.122;11.576;2022-08-20T11:46:45;21.60;;;18.42;;
40046;SDS011;31510;48.122;11.576;2022-08-20T11:49:10;22.48;;;18.77;;
40046;SDS011;31510;48.122;11.576;2022-08-20T11:51:35;19.88;;;17.75;;
40046;SDS011;31510;48.122;11.576;2022-08-20T11:54:01;21.40;;;18.48;;
40046;SDS011;31510;48.122;11.576;2022-08-20T11:56:27;21.45;;;18.65;;
40046;SDS011;31510;48.122;11.576;2022-08-20T11:58:53;19.88;;;17.67;;
40046;SDS011;31510;48.122;11.576;2022-08-20T12:01:18;20.10;;;17.00;;
40046;SDS011;31510;48.122;11.576;2022-08-20T12:03:43;21.30;;;19.10;;
40046;SDS011;31510;48.122;11.576;2022-08-20T12:06:09;22.05;;;19.75;;
40046;SDS011;31510;48.122;11.576;2022-08-20T12:08:34;24.17;;;18.87;;
40046;SDS011;31510;48.122;11.576;2022-08-20T12:11:00;19.48;;;17.20;;
40046;SDS011;31510;48.122;11.576;2022-08-20T12:13:27;19.38;;;17.23;;
40046;SDS011;31510;48.122;11.576;2022-08-20T12:15:56;17.73;;;15.93;;
40046;SDS011;31510;48.122;11.576;2022-08-20T12:18:21;16.63;;;14.57;;
40046;SDS011;31510;48.122;11.576;2022-08-20T12:20:46;13.73;;;12.40;;
40046;SDS011;31510;48.122;11.576;2022-08-20T12:23:12;14.43;;;12.98;;
40046;SDS011;31510;48.122;11.576;2022-08-20T12:25:38;13.88;;;12.32;;
40046;SDS011;31510;48.122;11.576;2022-08-20T12:28:04;14.57;;;12.27;;
40046;SDS011;31510;48.122;11.576;2022-08-20T12:30:30;14.35;;;12.05;;
40046;SDS011;31510;48.122;11.576;2022-08-20T12:32:57;13.32;;;11.60;;
40046;SDS011;31510;48.122;11.576;2022-08-20T12:35:22;13.57;;;12.18;;
40046;SDS011;31510;48.122;11.576;2022-08-20T12:37:48;15.60;;;12.15;;
40046;SDS011;31510;48.122;11.576;2022-08-20T12:40:15;14.43;;;12.52;;
40046;SDS011;31510;48.122;11.576;2022-08-20T12:42:42;15.00;;;11.15;;
40046;SDS011;31510;48.122;11.576;2022-08-20T12:45:08;12.40;;;11.00;;
40046;SDS011;31510;48.122;11.576;2022-08-20T12:47:35;10.98;;;9.98;;
40046;SDS011;31510;48.122;11.576;2022-08-20T12:50:09;12.40;;;11.00;;
40046;SDS011;31510;48.122;11.576;2022-08-20T12:52:37;11.38;;;10.20;;
40046;SDS011;31510;48.122;11.576;2022-08-20T12:55:03;10.40;;;9.35;;
40046;SDS011;31510;48.122;11.576;2022-08-20T12:57:31;10.18;;;9.18;;
40046;SDS011;31510;48.122;11.576;2022-08-20T12:59:58;11.50;;;10.30;;
40046;SDS011;31510;48.122;11.576;2022-08-20T13:02:36;10.63;;;9.52;;
40046;SDS011;31510;48.122;11.576;2022-08-20T13:05:10;13.15;;;10.75;;
40046;SDS011;31510;48.122;11.576;2022-08-20T13:07:37;9.77;;;8.82;;
40046;SDS011;31510;48.122;11.576;2022-08-20T13:10:04;12.57;;;10.93;;
40046;SDS011;31510;48.122;11.576;2022-08-20T13:12:31;12.73;;;10.90;;
40046;SDS011;31510;48.122;11.576;2022-08-20T13:14:56;12.57;;;10.70;;
40046;SDS011;31510;48.122;11.576;2022-08-20T13:17:22;12.63;;;10.88;;
40046;SDS011;31510;48.122;11.576;2022-08-20T13:19:47;12.50;;;11.30;;
40046;SDS011;31510;48.122;11.576;2022-08-20T13:22:13;13.05;;;10.90;;
40046;SDS011;31510;48.122;11.576;2022-08-20T13:24:39;11.85;;;10.65;;
40046;SDS011;31510;48.122;11.576;2022-08-20T13:27:05;11.52;;;9.52;;
40046;SDS011;31510;48.122;11.576;2022-08-20T13:29:48;11.50;;;10.32;;
40046;SDS011;31510;48.122;11.576;2022-08-20T13:32:14;15.88;;;11.90;;
40046;SDS011;31510;48.122;11.576;2022-08-20T13:34:41;11.57;;;10.43;;
40046;SDS011;31510;48.122;11.576;2022-08-20T13:37:13;11.85;;;10.65;;
40046;SDS011;31510;48.122;11.576;2022-08-20T13:39:44;12.45;;;10.10;;
40046;SDS011;31510;48.122;11.576;2022-08-20T13:42:10;12.60;;;9.93;;
40046;SDS011;31510;48.122;11.576;2022-08-20T13:44:36;12.93;;;9.13;;
40046;SDS011;31510;48.122;11.576;2022-08-20T13:47:12;11.15;;;9.90;;
40046;SDS011;31510;48.122;11.576;2022-08-20T13:49:39;12.38;;;9.65;;
40046;SDS011;31510;48.122;11.576;2022-08-20T13:52:04;10.38;;;9.35;;
40046;SDS011;31510;48.122;11.576;2022-08-20T13:54:30;10.45;;;9.20;;
40046;SDS011;31510;48.122;11.576;2022-08-20T13:57:08;10.30;;;9.30;;
40046;SDS011;31510;48.122;11.576;2022-08-20T13:59:40;10.15;;;9.10;;
40046;SDS011;31510;48.122;11.576;2022-08-20T14:02:07;12.60;;;10.38;;
40046;SDS011;31510;48.122;11.576;2022-08-20T14:04:33;9.60;;;8.70;;
40046;SDS011;31510;48.122;11.576;2022-08-20T14:07:07;10.52;;;9.23;;
40046;SDS011;31510;48.122;11.576;2022-08-20T14:09:35;10.38;;;8.77;;
40046;SDS011;31510;48.122;11.576;2022-08-20T14:12:02;9.63;;;8.63;;
40046;SDS011;31510;48.122;11.576;2022-08-20T14:14:28;6.10;;;5.50;;
40046;SDS011;31510;48.122;11.576;2022-08-20T14:16:53;5.25;;;4.07;;
40046;SDS011;31510;48.122;11.576;2022-08-20T14:19:18;6.07;;;3.93;;
40046;SDS011;31510;48.122;11.576;2022-08-20T14:21:43;4.45;;;2.85;;
40046;SDS011;31510;48.122;11.576;2022-08-20T14:24:09;3.08;;;2.53;;
40046;SDS011;31510;48.122;11.576;2022-08-20T14:26:34;4.70;;;3.20;;